Time,TemperatureF,DewpointF,PressureIn,WindDirection,WindDirectionDegrees,WindSpeedMPH,WindSpeedGustMPH,Humidity,HourlyPrecipIn,Conditions,Clouds,dailyrainin,SolarRadiationWatts/m^2,SoftwareType,DateUTC
2013-10-07 12:01:00,53.9,21.6,30.09,West,268,13.0,-999.0,28,-99.99,,,1.00,458,WeatherHawk,2013-10-07 19:01:00,
2013-10-07 12:10:00,54.6,19.5,30.09,WSW,254,8.0,-999.0,25,0.00,,,0.00,536,WeatherHawk,2013-10-07 19:10:00,
2013-10-07 12:15:00,55.3,20.1,30.09,West,276,10.0,-999.0,25,0.00,,,0.00,564,WeatherHawk,2013-10-07 19:15:00,
2013-10-07 12:20:00,53.4,21.1,30.09,WNW,286,11.0,-999.0,28,0.00,,,0.00,313,WeatherHawk,2013-10-07 19:20:00,
2013-10-07 12:25:00,53.4,21.2,30.09,WNW,287,17.0,-999.0,28,0.00,,,0.00,626,WeatherHawk,2013-10-07 19:25:00,
2013-10-07 12:30:00,53.7,21.4,30.10,West,273,10.0,-999.0,28,0.00,,,0.00,481,WeatherHawk,2013-10-07 19:30:00,
2013-10-07 12:35:00,55.6,21.3,30.10,SSW,198,6.0,-999.0,26,0.00,,,0.00,562,WeatherHawk,2013-10-07 19:35:00,
2013-10-07 12:40:00,54.1,20.0,30.09,West,274,9.0,-999.0,26,0.00,,,0.00,554,WeatherHawk,2013-10-07 19:40:00,
2013-10-07 12:45:00,54.2,16.2,30.10,West,269,12.0,-999.0,22,0.00,,,0.00,580,WeatherHawk,2013-10-07 19:45:00,
2013-10-07 12:50:00,53.3,16.5,30.09,West,273,11.0,-999.0,23,0.00,,,0.00,544,WeatherHawk,2013-10-07 19:50:00,
2013-10-07 12:55:00,54.7,17.6,30.09,WSW,252,13.0,-999.0,23,0.00,,,0.00,547,WeatherHawk,2013-10-07 19:55:00,
2013-10-07 13:00:00,53.8,17.8,30.09,West,268,10.0,-999.0,24,0.00,,,0.00,559,WeatherHawk,2013-10-07 20:00:00,
2013-10-07 13:05:00,55.7,20.5,30.09,West,272,12.0,-999.0,25,0.00,,,0.00,535,WeatherHawk,2013-10-07 20:05:00,
2013-10-07 13:10:00,55.0,18.9,30.10,West,281,16.0,-999.0,24,0.00,,,0.00,542,WeatherHawk,2013-10-07 20:10:00,
2013-10-07 13:15:00,54.0,19.0,30.09,WNW,289,13.0,-999.0,25,0.00,,,0.00,593,WeatherHawk,2013-10-07 20:15:00,
2013-10-07 13:20:00,55.4,20.1,30.10,WSW,237,8.0,-999.0,25,0.00,,,0.00,139,WeatherHawk,2013-10-07 20:20:00,
2013-10-07 13:25:00,52.6,20.4,30.10,West,273,14.0,-999.0,28,0.00,,,0.00,116,WeatherHawk,2013-10-07 20:25:00,
2013-10-07 13:30:00,52.9,21.5,30.10,WSW,247,9.0,-999.0,29,0.00,,,0.00,159,WeatherHawk,2013-10-07 20:30:00,
2013-10-07 13:35:00,54.3,20.2,30.10,WSW,245,9.0,-999.0,26,0.00,,,0.00,530,WeatherHawk,2013-10-07 20:35:00,
2013-10-07 13:45:00,54.1,18.1,30.11,West,273,11.0,-999.0,24,0.00,,,0.00,511,WeatherHawk,2013-10-07 20:45:00,
2013-10-07 13:50:00,53.9,18.0,30.11,WNW,283,11.0,-999.0,24,0.00,,,0.00,427,WeatherHawk,2013-10-07 20:50:00,
2013-10-07 13:55:00,52.6,18.7,30.11,West,269,10.0,-999.0,26,0.00,,,0.00,498,WeatherHawk,2013-10-07 20:55:00,
2013-10-07 14:00:00,54.1,20.0,30.11,WSW,239,7.0,-999.0,26,0.00,,,0.00,343,WeatherHawk,2013-10-07 21:00:00,
2013-10-07 14:05:00,53.4,17.5,30.10,WSW,240,13.0,-999.0,24,0.00,,,0.00,138,WeatherHawk,2013-10-07 21:05:00,
2013-10-07 14:10:00,52.6,17.8,30.11,West,279,17.0,-999.0,25,0.00,,,0.00,503,WeatherHawk,2013-10-07 21:10:00,
2013-10-07 14:15:00,54.4,19.3,30.11,WNW,283,11.0,-999.0,25,0.00,,,0.00,494,WeatherHawk,2013-10-07 21:15:00,
2013-10-07 14:20:00,53.2,17.3,30.10,WSW,248,11.0,-999.0,24,0.00,,,0.00,506,WeatherHawk,2013-10-07 21:20:00,
2013-10-07 14:25:00,57.1,17.5,30.10,SW,226,7.0,-999.0,21,0.00,,,0.00,468,WeatherHawk,2013-10-07 21:25:00,
2013-10-07 14:30:00,56.5,14.8,30.10,NW,315,4.0,-999.0,19,0.00,,,0.00,471,WeatherHawk,2013-10-07 21:30:00,
2013-10-07 14:35:00,54.5,13.1,30.11,WNW,289,16.0,-999.0,19,0.00,,,0.00,478,WeatherHawk,2013-10-07 21:35:00,
2013-10-07 14:40:00,54.0,11.5,30.10,West,280,14.0,-999.0,18,0.00,,,0.00,460,WeatherHawk,2013-10-07 21:40:00,
2013-10-07 14:45:00,54.1,13.9,30.09,WSW,250,10.0,-999.0,20,0.00,,,0.00,453,WeatherHawk,2013-10-07 21:45:00,
2013-10-07 14:50:00,53.0,14.1,30.09,WNW,282,18.0,-999.0,21,0.00,,,0.00,445,WeatherHawk,2013-10-07 21:50:00,
2013-10-07 14:55:00,53.2,12.0,30.10,WNW,294,13.0,-999.0,19,0.00,,,0.00,433,WeatherHawk,2013-10-07 21:55:00,
2013-10-07 15:00:00,53.4,13.3,30.10,West,276,20.0,-999.0,20,0.00,,,0.00,426,WeatherHawk,2013-10-07 22:00:00,
2013-10-07 15:05:00,54.0,14.9,30.11,WNW,287,10.0,-999.0,21,0.00,,,0.00,419,WeatherHawk,2013-10-07 22:05:00,
2013-10-07 15:10:00,53.5,16.7,30.10,WNW,297,18.0,-999.0,23,0.00,,,0.00,411,WeatherHawk,2013-10-07 22:10:00,
2013-10-07 15:15:00,53.0,16.2,30.10,WSW,257,12.0,-999.0,23,0.00,,,0.00,411,WeatherHawk,2013-10-07 22:15:00,
2013-10-07 15:20:00,54.4,16.3,30.11,West,259,8.0,-999.0,22,0.00,,,0.00,410,WeatherHawk,2013-10-07 22:20:00,
2013-10-07 15:25:00,54.3,12.9,30.10,SW,220,12.0,-999.0,19,0.00,,,0.00,388,WeatherHawk,2013-10-07 22:25:00,
2013-10-07 15:30:00,54.5,14.3,30.10,West,272,14.0,-999.0,20,0.00,,,0.00,380,WeatherHawk,2013-10-07 22:30:00,
2013-10-07 15:40:00,53.3,14.4,30.11,WSW,254,9.0,-999.0,21,0.00,,,0.00,359,WeatherHawk,2013-10-07 22:40:00,
2013-10-07 15:50:00,52.2,13.4,30.11,West,269,12.0,-999.0,21,0.00,,,0.00,340,WeatherHawk,2013-10-07 22:50:00,
2013-10-07 15:55:00,53.3,16.4,30.11,WNW,303,19.0,-999.0,23,0.00,,,0.00,327,WeatherHawk,2013-10-07 22:55:00,
2013-10-07 16:00:00,53.6,15.7,30.11,WSW,246,4.0,-999.0,22,0.00,,,0.00,320,WeatherHawk,2013-10-07 23:00:00,
2013-10-07 16:05:00,54.1,17.2,30.11,West,275,8.0,-999.0,23,0.00,,,0.00,310,WeatherHawk,2013-10-07 23:05:00,
2013-10-07 16:10:00,54.4,16.4,30.11,SW,214,18.0,-999.0,22,0.00,,,0.00,304,WeatherHawk,2013-10-07 23:10:00,
2013-10-07 16:15:00,53.3,15.4,30.11,WSW,256,8.0,-999.0,22,0.00,,,0.00,295,WeatherHawk,2013-10-07 23:15:00,
2013-10-07 16:20:00,52.3,16.6,30.11,SW,235,10.0,-999.0,24,0.00,,,0.00,283,WeatherHawk,2013-10-07 23:20:00,
2013-10-07 16:25:00,51.9,15.3,30.11,WSW,241,14.0,-999.0,23,0.00,,,0.00,248,WeatherHawk,2013-10-07 23:25:00,
2013-10-07 16:30:00,53.0,17.2,30.10,West,273,8.0,-999.0,24,0.00,,,0.00,256,WeatherHawk,2013-10-07 23:30:00,
2013-10-07 16:35:00,51.7,16.1,30.10,West,265,14.0,-999.0,24,0.00,,,0.00,249,WeatherHawk,2013-10-07 23:35:00,
2013-10-07 16:40:00,53.1,15.3,30.10,WSW,242,8.0,-999.0,22,0.00,,,0.00,235,WeatherHawk,2013-10-07 23:40:00,
2013-10-07 16:45:00,52.9,15.1,30.09,WNW,288,15.0,-999.0,22,0.00,,,0.00,226,WeatherHawk,2013-10-07 23:45:00,
2013-10-07 16:50:00,52.2,14.5,30.09,West,275,17.0,-999.0,22,0.00,,,0.00,211,WeatherHawk,2013-10-07 23:50:00,
2013-10-07 16:55:00,52.0,15.4,30.10,SW,229,11.0,-999.0,23,0.00,,,0.00,31,WeatherHawk,2013-10-07 23:55:00,
2013-10-07 17:00:00,51.3,14.8,30.11,West,268,16.0,-999.0,23,0.00,,,0.00,194,WeatherHawk,2013-10-08 00:00:00,
2013-10-07 17:05:00,52.4,15.7,30.10,West,277,12.0,-999.0,23,0.00,,,0.00,177,WeatherHawk,2013-10-08 00:05:00,
2013-10-07 17:10:00,52.5,14.8,30.10,WNW,296,10.0,-999.0,22,0.00,,,0.00,164,WeatherHawk,2013-10-08 00:10:00,
2013-10-07 17:15:00,52.2,16.5,30.10,WSW,244,9.0,-999.0,24,0.00,,,0.00,155,WeatherHawk,2013-10-08 00:15:00,
2013-10-07 17:20:00,51.6,16.0,30.10,WSW,257,18.0,-999.0,24,0.00,,,0.00,146,WeatherHawk,2013-10-08 00:20:00,
2013-10-07 17:25:00,50.9,18.1,30.11,SW,235,14.0,-999.0,27,0.00,,,0.00,26,WeatherHawk,2013-10-08 00:25:00,
2013-10-07 17:30:00,51.0,19.9,30.12,West,271,12.0,-999.0,29,0.00,,,0.00,88,WeatherHawk,2013-10-08 00:30:00,
2013-10-07 17:35:00,50.5,19.5,30.12,WSW,244,11.0,-999.0,29,0.00,,,0.00,25,WeatherHawk,2013-10-08 00:35:00,
2013-10-07 17:40:00,50.2,20.0,30.12,West,268,12.0,-999.0,30,0.00,,,0.00,22,WeatherHawk,2013-10-08 00:40:00,
2013-10-07 17:45:00,50.0,20.6,30.11,SSW,208,6.0,-999.0,31,0.00,,,0.00,19,WeatherHawk,2013-10-08 00:45:00,
2013-10-07 17:50:00,49.7,21.1,30.11,WNW,283,2.0,-999.0,32,0.00,,,0.00,18,WeatherHawk,2013-10-08 00:50:00,
2013-10-07 17:55:00,49.8,21.9,30.12,West,277,6.0,-999.0,33,0.00,,,0.00,16,WeatherHawk,2013-10-08 00:55:00,
2013-10-07 18:00:00,49.9,21.9,30.12,WSW,255,9.0,-999.0,33,0.00,,,0.00,16,WeatherHawk,2013-10-08 01:00:00,
2013-10-07 18:05:00,49.8,21.9,30.12,West,264,4.0,-999.0,33,0.00,,,0.00,34,WeatherHawk,2013-10-08 01:05:00,
2013-10-07 18:10:00,50.1,22.1,30.13,West,270,5.0,-999.0,33,0.00,,,0.00,25,WeatherHawk,2013-10-08 01:10:00,
2013-10-07 18:15:00,49.5,22.3,30.13,SSW,208,2.0,-999.0,34,0.00,,,0.00,27,WeatherHawk,2013-10-08 01:15:00,
2013-10-07 18:20:00,49.7,22.4,30.13,West,264,7.0,-999.0,34,0.00,,,0.00,10,WeatherHawk,2013-10-08 01:20:00,
2013-10-07 18:25:00,49.6,22.4,30.13,WSW,248,5.0,-999.0,34,0.00,,,0.00,7,WeatherHawk,2013-10-08 01:25:00,
2013-10-07 18:30:00,49.2,22.0,30.13,WSW,237,5.0,-999.0,34,0.00,,,0.00,5,WeatherHawk,2013-10-08 01:30:00,
2013-10-07 18:35:00,48.3,22.6,30.13,WSW,239,1.0,-999.0,36,0.00,,,0.00,3,WeatherHawk,2013-10-08 01:35:00,
2013-10-07 18:40:00,48.6,23.5,30.13,SW,221,8.0,-999.0,37,0.00,,,0.00,2,WeatherHawk,2013-10-08 01:40:00,
2013-10-07 18:45:00,48.6,24.8,30.13,WSW,249,7.0,-999.0,39,0.00,,,0.00,0,WeatherHawk,2013-10-08 01:45:00,
2013-10-07 18:50:00,48.3,24.5,30.13,SW,219,7.0,-999.0,39,0.00,,,0.00,0,WeatherHawk,2013-10-08 01:50:00,
2013-10-07 18:55:00,48.5,24.0,30.13,SSW,206,9.0,-999.0,38,0.00,,,0.00,0,WeatherHawk,2013-10-08 01:55:00,
2013-10-07 19:00:00,48.1,23.7,30.13,SW,222,9.0,-999.0,38,0.00,,,0.00,0,WeatherHawk,2013-10-08 02:00:00,
2013-10-07 19:05:00,48.0,22.3,30.13,WSW,246,5.0,-999.0,36,0.00,,,0.00,0,WeatherHawk,2013-10-08 02:05:00,
2013-10-07 19:10:00,48.0,21.7,30.13,South,172,9.0,-999.0,35,0.00,,,0.00,0,WeatherHawk,2013-10-08 02:10:00,
2013-10-07 19:15:00,48.2,22.5,30.13,WSW,246,11.0,-999.0,36,0.00,,,0.00,1,WeatherHawk,2013-10-08 02:15:00,
2013-10-07 19:20:00,47.9,22.9,30.14,WSW,245,7.0,-999.0,37,0.00,,,0.00,0,WeatherHawk,2013-10-08 02:20:00,
2013-10-07 19:25:00,48.0,21.7,30.13,SSE,165,5.0,-999.0,35,0.00,,,0.00,0,WeatherHawk,2013-10-08 02:25:00,
2013-10-07 19:30:00,48.1,22.4,30.13,WSW,243,5.0,-999.0,36,0.00,,,0.00,0,WeatherHawk,2013-10-08 02:30:00,
2013-10-07 19:35:00,48.4,22.1,30.14,SSW,197,7.0,-999.0,35,0.00,,,0.00,0,WeatherHawk,2013-10-08 02:35:00,
2013-10-07 19:40:00,48.2,21.8,30.13,WSW,256,6.0,-999.0,35,0.00,,,0.00,0,WeatherHawk,2013-10-08 02:40:00,
2013-10-07 19:45:00,47.8,22.1,30.13,WSW,245,2.0,-999.0,36,0.00,,,0.00,0,WeatherHawk,2013-10-08 02:45:00,
2013-10-07 19:50:00,47.8,22.8,30.13,SSW,204,4.0,-999.0,37,0.00,,,0.00,0,WeatherHawk,2013-10-08 02:50:00,
2013-10-07 19:55:00,47.8,23.5,30.13,SSW,212,5.0,-999.0,38,0.00,,,0.00,0,WeatherHawk,2013-10-08 02:55:00,
2013-10-07 20:00:00,47.1,23.4,30.13,SSE,162,1.0,-999.0,39,0.00,,,0.00,0,WeatherHawk,2013-10-08 03:00:00,
2013-10-07 20:05:00,47.9,24.8,30.13,SE,125,5.0,-999.0,40,0.00,,,0.00,0,WeatherHawk,2013-10-08 03:05:00,
2013-10-07 20:10:00,47.5,24.4,30.13,NE,53,0.0,-999.0,40,0.00,,,0.00,0,WeatherHawk,2013-10-08 03:10:00,
2013-10-07 20:15:00,48.5,24.1,30.13,ESE,102,5.0,-999.0,38,0.00,,,0.00,0,WeatherHawk,2013-10-08 03:15:00,
2013-10-07 20:20:00,47.7,24.0,30.13,SSE,164,6.0,-999.0,39,0.00,,,0.00,1,WeatherHawk,2013-10-08 03:20:00,
2013-10-07 20:25:00,47.3,23.6,30.13,SSW,200,3.0,-999.0,39,0.00,,,0.00,1,WeatherHawk,2013-10-08 03:25:00,
2013-10-07 20:30:00,47.2,23.5,30.13,SSW,203,5.0,-999.0,39,0.00,,,0.00,0,WeatherHawk,2013-10-08 03:30:00,
2013-10-07 20:35:00,47.2,24.1,30.13,SSW,196,4.0,-999.0,40,0.00,,,0.00,0,WeatherHawk,2013-10-08 03:35:00,
2013-10-07 20:40:00,46.7,24.3,30.13,WSW,241,1.0,-999.0,41,0.00,,,0.00,0,WeatherHawk,2013-10-08 03:40:00,
2013-10-07 20:45:00,47.3,23.6,30.13,SW,221,4.0,-999.0,39,0.00,,,0.00,0,WeatherHawk,2013-10-08 03:45:00,
2013-10-07 20:50:00,47.2,21.6,30.13,SSW,213,5.0,-999.0,36,0.00,,,0.00,0,WeatherHawk,2013-10-08 03:50:00,
2013-10-07 20:55:00,47.3,22.4,30.13,SW,222,2.0,-999.0,37,0.00,,,0.00,1,WeatherHawk,2013-10-08 03:55:00,
2013-10-07 21:00:00,47.6,22.0,30.13,WSW,251,5.0,-999.0,36,0.00,,,0.00,0,WeatherHawk,2013-10-08 04:00:00,
2013-10-07 21:05:00,47.2,21.6,30.13,SSE,158,0.0,-999.0,36,0.00,,,0.00,0,WeatherHawk,2013-10-08 04:05:00,
2013-10-07 21:10:00,47.5,21.9,30.13,West,260,0.0,-999.0,36,0.00,,,0.00,0,WeatherHawk,2013-10-08 04:10:00,
2013-10-07 21:15:00,46.8,20.6,30.13,West,269,0.0,-999.0,35,0.00,,,0.00,0,WeatherHawk,2013-10-08 04:15:00,
2013-10-07 21:20:00,47.4,21.8,30.13,SW,217,1.0,-999.0,36,0.00,,,0.00,1,WeatherHawk,2013-10-08 04:20:00,
2013-10-07 21:25:00,47.0,21.4,30.14,SW,226,0.0,-999.0,36,0.00,,,0.00,0,WeatherHawk,2013-10-08 04:25:00,
2013-10-07 21:30:00,46.8,22.0,30.13,SW,220,3.0,-999.0,37,0.00,,,0.00,0,WeatherHawk,2013-10-08 04:30:00,
2013-10-07 21:35:00,46.7,22.5,30.14,SW,235,1.0,-999.0,38,0.00,,,0.00,1,WeatherHawk,2013-10-08 04:35:00,
2013-10-07 21:40:00,46.4,22.8,30.14,WSW,246,0.0,-999.0,39,0.00,,,0.00,1,WeatherHawk,2013-10-08 04:40:00,
2013-10-07 21:45:00,46.1,22.5,30.14,West,267,0.0,-999.0,39,0.00,,,0.00,0,WeatherHawk,2013-10-08 04:45:00,
2013-10-07 21:50:00,46.4,23.4,30.14,West,267,0.0,-999.0,40,0.00,,,0.00,0,WeatherHawk,2013-10-08 04:50:00,
2013-10-07 21:55:00,45.6,23.3,30.14,West,266,0.0,-999.0,41,0.00,,,0.00,0,WeatherHawk,2013-10-08 04:55:00,
2013-10-07 22:00:00,46.6,23.0,30.15,WNW,303,2.0,-999.0,39,0.00,,,0.00,0,WeatherHawk,2013-10-08 05:00:00,
2013-10-07 22:05:00,47.5,23.1,30.15,WSW,249,6.0,-999.0,38,0.00,,,0.00,0,WeatherHawk,2013-10-08 05:05:00,
2013-10-07 22:10:00,46.8,24.3,30.15,West,264,2.0,-999.0,41,0.00,,,0.00,0,WeatherHawk,2013-10-08 05:10:00,
2013-10-07 22:20:00,46.8,19.3,30.15,WSW,237,1.0,-999.0,33,0.00,,,0.00,0,WeatherHawk,2013-10-08 05:20:00,
2013-10-07 22:25:00,47.3,18.2,30.15,West,265,8.0,-999.0,31,0.00,,,0.00,0,WeatherHawk,2013-10-08 05:25:00,
2013-10-07 22:35:00,46.8,18.5,30.15,WSW,237,6.0,-999.0,32,0.00,,,0.00,0,WeatherHawk,2013-10-08 05:35:00,
2013-10-07 22:40:00,46.7,18.4,30.15,West,269,6.0,-999.0,32,0.00,,,0.00,0,WeatherHawk,2013-10-08 05:40:00,
2013-10-07 22:45:00,46.3,18.1,30.14,West,276,4.0,-999.0,32,0.00,,,0.00,0,WeatherHawk,2013-10-08 05:45:00,
2013-10-07 22:50:00,46.9,18.6,30.14,WSW,258,7.0,-999.0,32,0.00,,,0.00,0,WeatherHawk,2013-10-08 05:50:00,
2013-10-07 22:55:00,46.1,18.6,30.15,WNW,302,3.0,-999.0,33,0.00,,,0.00,0,WeatherHawk,2013-10-08 05:55:00,
2013-10-07 23:00:00,45.9,19.1,30.15,SW,229,5.0,-999.0,34,0.00,,,0.00,0,WeatherHawk,2013-10-08 06:00:00,
2013-10-07 23:05:00,46.1,19.3,30.15,WSW,249,7.0,-999.0,34,0.00,,,0.00,0,WeatherHawk,2013-10-08 06:05:00,
2013-10-07 23:10:00,46.2,20.1,30.15,SW,228,6.0,-999.0,35,0.00,,,0.00,0,WeatherHawk,2013-10-08 06:10:00,
2013-10-07 23:15:00,45.4,20.0,30.15,SW,230,3.0,-999.0,36,0.00,,,0.00,0,WeatherHawk,2013-10-08 06:15:00,
2013-10-07 23:25:00,45.1,20.4,30.15,WSW,248,0.0,-999.0,37,0.00,,,0.00,0,WeatherHawk,2013-10-08 06:25:00,
2013-10-07 23:30:00,46.1,21.3,30.15,SW,228,7.0,-999.0,37,0.00,,,0.00,0,WeatherHawk,2013-10-08 06:30:00,
2013-10-07 23:35:00,45.5,21.3,30.15,WSW,253,4.0,-999.0,38,0.00,,,0.00,0,WeatherHawk,2013-10-08 06:35:00,
2013-10-07 23:40:00,45.8,21.6,30.15,WSW,244,5.0,-999.0,38,0.00,,,0.00,0,WeatherHawk,2013-10-08 06:40:00,
2013-10-07 23:45:00,45.2,21.7,30.15,SW,234,4.0,-999.0,39,0.00,,,0.00,0,WeatherHawk,2013-10-08 06:45:00,
2013-10-07 23:50:00,45.0,21.0,30.16,SW,222,1.0,-999.0,38,0.00,,,0.00,0,WeatherHawk,2013-10-08 06:50:00,
2013-10-07 23:55:00,45.0,21.5,30.16,South,187,2.0,-999.0,39,0.00,,,0.00,0,WeatherHawk,2013-10-08 06:55:00,